03:01
Airports
Links
Donate
Help keep this website running!
PayPal
Bitcoin
METAR
RJTF 200200Z 36005KT 330V040 9999 FEW020 SCT025 BKN035 07/M01 Q1018
Current Weather Conditions at RJTF
VFR 02:00:00 20-01-18
Altimeter:30.06 hg
Temp:7.0°c 45°f
Dew point:-1.0°c 30°f
Wind:5 knots, 5.8 mph, 3 m/s, from 360°
Visibility:6.21 statute miles
3500(BKN) Broken
2500(SCT) Scattered
2000(FEW) A few
Past METAR reports
MVFR 01:00:00 20-01-18
Altimeter:30.09 hg
Temp:6.0°c 43°f
Dew point:-2.0°c 28°f
Wind:3 knots, 3.5 mph, 2 m/s, from 330°
Visibility:6.21 statute miles
3500(BKN) Broken
2000(BKN) Broken
1500(FEW) A few
RJTF 200100Z 33003KT 270V360 9999 FEW015 BKN020 BKN035 06/M02 Q1019
MVFR 00:00:00 20-01-18
Altimeter:30.09 hg
Temp:5.0°c 41°f
Dew point:-3.0°c 27°f
Wind:5 knots, 5.8 mph, 3 m/s, from 350°
Visibility:6.21 statute miles
4000(BKN) Broken
2500(BKN) Broken
2000(FEW) A few
RJTF 200000Z 35005KT 310V020 9999 FEW020 BKN025 BKN040 05/M03 Q1019
MVFR 23:30:00 19-01-18
Altimeter:30.09 hg
Temp:5.0°c 41°f
Dew point:-3.0°c 27°f
Wind:4 knots, 4.6 mph, 2 m/s, from 340°
Visibility:6.21 statute miles
4000(BKN) Broken
2500(BKN) Broken
2000(FEW) A few
RJTF 192330Z 34004KT 9999 FEW020 BKN025 BKN040 05/M03 Q1019
TAF
No TAF for RJTF
Forecast at RJTF
No Forecast Reports for RJTF